KLASKEDU [GRG1]

Guest
Details From KLAS - Mc Carran Intl
To KEDU - University
Flight Number GRG1
Tags Real Commercial Decoded
Created
Modified
Stats Distance 363 nm / 672 km
Max Altitude 24,000 ft / 7,315 m
Waypoints 4
Social Downloads 0
Likes 0
Share VATSIM

Download

Looking for another format? Having issues loading an existing format? Contact us
Advertisement - Login to hide

Notes

Decoded

Route

KLAS OAL SAC KEDU

ID Type Via Altitude Latitude Longitude Leg Dist Tot Dist Heading (true) Name
O KLAS APT - 0 ft / 0 m 36.07533˚ -115.17037˚ - 0 nm - -
OAL VOR - 24,000 ft / 7,315 m 38.00325˚ -117.77044˚ 170 nm 170 nm 314° / 312° COALDALE VORTAC
SAC VOR - 5,078 ft / 1,548 m 38.44367˚ -121.55161˚ 180 nm 350 nm 280° / 277° SACRAMENTO VORTAC
O KEDU APT - 0 ft / 0 m 38.53582˚ -121.78640˚ 12 nm 362 nm 297° / 297° -

Altitude Profile

Advertisement - Login to hide

Weather


0- 5 10 15 20 25 30 35+ Temperature / ° C

Clouds and Precipitation
Forecast for 2017-12-13 12:00 UTC. Updated 16 minutes ago

Ground ~20,000 ft ~40,000 ft Winds

KLAS

Details ICAO KLAS (LAS)
Name Mc Carran Intl
Region United States
Timezone America/Los_Angeles (UTC-8.0)
Stats Elevation 2,141 ft / 653 m (AMSL)
Location 36.080975° -115.153446°
Runways 4
Magnetic Variation 11.655° E

METAR

KLAS 131056Z 23004KT 10SM CLR 07/M16 A3015 RMK AO2 SLP203 T00721161

Decode

TAF

KLAS 130845Z 1309/1412 23006KT P6SM SKC FM131600 VRB05KT P6SM SKC FM140200 23006KT P6SM SCT250

Decode

Departure Runways

ID Width Length Bearing (true) Bearing (mag) Surface Threshold Offset Overrun Length
01L 151 ft / 46 m 9,783 ft / 2,982 m 24.85° 13.19° Concrete 584 ft / 178 m 410 ft / 125 m
01R 151 ft / 46 m 9,791 ft / 2,984 m 24.84° 13.18° Concrete 492 ft / 150 m 394 ft / 120 m
07L 151 ft / 46 m 14,833 ft / 4,521 m 89.89° 78.23° Asphalt 2,477 ft / 755 m 374 ft / 114 m
07R 151 ft / 46 m 10,503 ft / 3,201 m 89.92° 78.26° Asphalt 0 ft / 0 m 390 ft / 119 m
19L 151 ft / 46 m 9,791 ft / 2,984 m 204.84° 193.18° Concrete 879 ft / 268 m 410 ft / 125 m
19R 151 ft / 46 m 9,783 ft / 2,982 m 204.86° 193.20° Concrete 771 ft / 235 m 410 ft / 125 m
25L 151 ft / 46 m 10,503 ft / 3,201 m 269.94° 258.28° Asphalt 0 ft / 0 m 410 ft / 125 m
25R 151 ft / 46 m 14,833 ft / 4,521 m 269.92° 258.26° Asphalt 1,398 ft / 426 m 623 ft / 190 m

KEDU

Details ICAO KEDU
Name University
Region United States
Timezone America/Los_Angeles (UTC-8.0)
Stats Elevation 68 ft / 21 m (AMSL)
Location 38.531460° -121.786478°
Runways 1
Magnetic Variation 13.570° E

METAR

KEDU 131135Z AUTO 00000KT 10SM CLR 00/00 A3020 RMK AO1

Decode

TAF

Not found

Destination Runways

ID Width Length Bearing (true) Bearing (mag) Surface Threshold Offset Overrun Length
16 49 ft / 15 m 3,184 ft / 970 m 180.77° 167.20° Asphalt 0 ft / 0 m 0 ft / 0 m
34 49 ft / 15 m 3,184 ft / 970 m 0.77° 347.20° Asphalt 0 ft / 0 m 0 ft / 0 m